createdAt,value
2023-05-22T00:01:46.951Z,100.00
2023-05-22T00:04:21.529Z,100.00
2023-05-22T00:06:50.211Z,100.00
2023-05-22T00:09:18.184Z,100.00
2023-05-22T00:11:46.214Z,100.00
2023-05-22T00:14:14.609Z,100.00
2023-05-22T00:16:42.704Z,100.00
2023-05-22T00:19:16.698Z,100.00
2023-05-22T00:21:54.392Z,100.00
2023-05-22T00:24:23.292Z,100.00
2023-05-22T00:26:50.948Z,100.00
2023-05-22T00:29:18.724Z,100.00
2023-05-22T00:31:46.814Z,100.00
2023-05-22T00:34:14.977Z,100.00
2023-05-22T00:36:43.066Z,100.00
2023-05-22T00:39:11.513Z,100.00
2023-05-22T00:41:39.728Z,100.00
2023-05-22T00:44:08.172Z,100.00
2023-05-22T00:46:36.730Z,100.00
2023-05-22T00:49:05.297Z,100.00
2023-05-22T00:51:33.644Z,100.00
2023-05-22T00:54:01.512Z,100.00
2023-05-22T00:56:29.817Z,100.00
2023-05-22T00:58:58.652Z,100.00
2023-05-22T01:01:26.893Z,100.00
2023-05-22T01:03:55.896Z,100.00
2023-05-22T01:06:24.447Z,100.00
2023-05-22T01:08:52.197Z,100.00
2023-05-22T01:11:37.821Z,100.00
2023-05-22T01:14:29.939Z,100.00
2023-05-22T01:17:12.085Z,100.00
2023-05-22T01:20:07.324Z,100.00
2023-05-22T01:23:13.711Z,100.00
2023-05-22T01:26:22.172Z,100.00
2023-05-22T01:29:26.825Z,100.00
2023-05-22T01:31:58.123Z,100.00
2023-05-22T01:34:26.811Z,100.00
2023-05-22T01:36:56.560Z,100.00
2023-05-22T01:39:28.862Z,100.00
2023-05-22T01:41:58.000Z,100.00
2023-05-22T01:44:25.730Z,100.00
2023-05-22T01:46:53.539Z,100.00
2023-05-22T01:49:21.303Z,100.00
2023-05-22T01:51:49.220Z,100.00
2023-05-22T01:54:28.240Z,100.00
2023-05-22T01:57:03.484Z,100.00
2023-05-22T01:59:39.947Z,100.00
2023-05-22T02:02:10.771Z,100.00
2023-05-22T02:04:45.210Z,100.00
2023-05-22T02:07:17.897Z,100.00
2023-05-22T02:09:50.820Z,100.00
2023-05-22T02:12:20.024Z,100.00
2023-05-22T02:14:49.509Z,100.00
2023-05-22T02:17:22.193Z,100.00
2023-05-22T02:19:50.051Z,100.00
2023-05-22T02:22:17.800Z,100.00
2023-05-22T02:24:48.757Z,100.00
2023-05-22T02:27:17.451Z,100.00
2023-05-22T02:29:45.111Z,100.00
2023-05-22T02:32:12.699Z,100.00
2023-05-22T02:34:40.473Z,100.00
2023-05-22T02:37:08.377Z,100.00
2023-05-22T02:39:36.062Z,100.00
2023-05-22T02:42:05.137Z,100.00
2023-05-22T02:44:32.787Z,100.00
2023-05-22T02:47:00.487Z,100.00
2023-05-22T02:49:28.249Z,100.00
2023-05-22T02:51:56.015Z,100.00
2023-05-22T02:54:23.680Z,100.00
2023-05-22T02:56:51.467Z,100.00
2023-05-22T02:59:19.303Z,100.00
2023-05-22T03:01:48.526Z,100.00
2023-05-22T03:04:16.344Z,100.00
2023-05-22T03:06:46.388Z,100.00
2023-05-22T03:09:14.375Z,100.00
2023-05-22T03:11:42.509Z,100.00
2023-05-22T03:14:10.569Z,100.00
2023-05-22T03:16:38.468Z,100.00
2023-05-22T03:19:13.795Z,100.00
2023-05-22T03:21:44.468Z,100.00
2023-05-22T03:24:15.098Z,100.00
2023-05-22T03:26:44.018Z,100.00
2023-05-22T03:29:18.599Z,100.00
2023-05-22T03:31:46.937Z,100.00
2023-05-22T03:34:16.824Z,100.00
2023-05-22T03:36:47.328Z,100.00
2023-05-22T03:39:17.295Z,100.00
2023-05-22T03:41:54.262Z,100.00
2023-05-22T03:44:22.037Z,100.00
2023-05-22T03:46:49.811Z,100.00
2023-05-22T03:49:17.503Z,100.00
2023-05-22T03:51:45.389Z,100.00
2023-05-22T03:54:13.121Z,100.00
2023-05-22T03:56:43.563Z,100.00
2023-05-22T03:59:11.772Z,100.00
2023-05-22T04:01:40.160Z,100.00
2023-05-22T04:04:07.833Z,100.00
2023-05-22T04:06:43.140Z,100.00
2023-05-22T04:09:13.981Z,100.00
2023-05-22T04:11:42.509Z,100.00
2023-05-22T04:14:10.439Z,100.00
2023-05-22T04:16:38.148Z,100.00
2023-05-22T04:19:06.061Z,100.00
2023-05-22T04:21:38.360Z,100.00
2023-05-22T04:24:07.616Z,100.00
2023-05-22T04:26:37.364Z,100.00
2023-05-22T04:29:10.632Z,100.00
2023-05-22T04:31:38.650Z,100.00
2023-05-22T04:34:06.847Z,100.00
2023-05-22T04:36:35.974Z,100.00
2023-05-22T04:39:04.213Z,100.00
2023-05-22T04:41:32.620Z,100.00
2023-05-22T04:44:04.071Z,100.00
2023-05-22T04:46:31.947Z,100.00
2023-05-22T04:49:02.299Z,100.00
2023-05-22T04:51:31.748Z,100.00
2023-05-22T04:53:59.472Z,100.00
2023-05-22T04:56:36.112Z,100.00
2023-05-22T04:59:09.144Z,100.00
2023-05-22T05:01:39.543Z,100.00
2023-05-22T05:04:07.361Z,100.00
2023-05-22T05:06:35.953Z,100.00
2023-05-22T05:09:07.286Z,100.00
2023-05-22T05:11:36.619Z,100.00
2023-05-22T05:14:04.510Z,100.00
2023-05-22T05:16:33.412Z,100.00
2023-05-22T05:19:01.490Z,100.00
2023-05-22T05:21:30.163Z,100.00
2023-05-22T05:24:01.225Z,100.00
2023-05-22T05:26:29.318Z,100.00
2023-05-22T05:28:57.284Z,100.00
2023-05-22T05:31:30.035Z,100.00
2023-05-22T05:34:11.027Z,100.00
2023-05-22T05:36:52.618Z,100.00
2023-05-22T05:39:22.900Z,100.00
2023-05-22T05:41:51.926Z,100.00
2023-05-22T05:44:19.735Z,100.00
2023-05-22T05:46:48.228Z,100.00
2023-05-22T05:49:20.127Z,100.00
2023-05-22T05:51:48.604Z,100.00
2023-05-22T05:54:17.330Z,100.00
2023-05-22T05:56:46.668Z,100.00
2023-05-22T05:59:14.608Z,100.00
2023-05-22T06:02:01.741Z,100.00
2023-05-22T06:04:33.153Z,100.00
2023-05-22T06:07:02.008Z,100.00
2023-05-22T06:09:40.238Z,100.00
2023-05-22T06:12:15.614Z,100.00
2023-05-22T06:14:45.947Z,100.00
2023-05-22T06:17:16.319Z,100.00
2023-05-22T06:19:45.131Z,100.00
2023-05-22T06:22:14.057Z,100.00
2023-05-22T06:24:44.200Z,100.00
2023-05-22T06:27:16.814Z,100.00
2023-05-22T06:29:44.819Z,100.00
2023-05-22T06:32:13.793Z,100.00
2023-05-22T06:34:47.004Z,100.00
2023-05-22T06:37:16.265Z,100.00
2023-05-22T06:39:45.611Z,100.00
2023-05-22T06:42:44.586Z,100.00
2023-05-22T06:45:37.588Z,100.00
2023-05-22T06:48:28.628Z,100.00
2023-05-22T06:51:12.857Z,100.00
2023-05-22T06:53:42.331Z,100.00
2023-05-22T06:56:18.334Z,100.00
2023-05-22T06:58:54.424Z,100.00
2023-05-22T07:01:26.101Z,100.00
2023-05-22T07:04:09.221Z,100.00
2023-05-22T07:06:41.923Z,100.00
2023-05-22T07:09:11.463Z,100.00
2023-05-22T07:11:39.390Z,100.00
2023-05-22T07:14:08.041Z,100.00
2023-05-22T07:16:37.062Z,100.00
2023-05-22T07:19:05.247Z,100.00
2023-05-22T07:21:35.654Z,100.00
2023-05-22T07:24:08.472Z,100.00
2023-05-22T07:26:46.528Z,100.00
2023-05-22T07:29:17.783Z,100.00
2023-05-22T07:31:49.018Z,100.00
2023-05-22T07:34:17.040Z,100.00
2023-05-22T07:36:46.081Z,100.00
2023-05-22T07:39:17.798Z,100.00
2023-05-22T07:41:50.287Z,100.00
2023-05-22T07:44:19.995Z,100.00
2023-05-22T07:46:49.854Z,100.00
2023-05-22T07:49:23.567Z,100.00
2023-05-22T07:51:52.717Z,100.00
2023-05-22T07:54:22.696Z,100.00
2023-05-22T07:56:55.157Z,100.00
2023-05-22T07:59:25.594Z,100.00
2023-05-22T08:01:58.339Z,100.00
2023-05-22T08:04:26.490Z,100.00
2023-05-22T08:06:57.986Z,100.00
2023-05-22T08:09:25.865Z,100.00
2023-05-22T08:11:53.662Z,100.00
2023-05-22T08:14:24.716Z,100.00
2023-05-22T08:16:52.554Z,100.00
2023-05-22T08:19:20.490Z,100.00
2023-05-22T08:21:48.198Z,100.00
2023-05-22T08:24:16.194Z,100.00
2023-05-22T08:26:43.907Z,100.00
2023-05-22T08:29:12.247Z,100.00
2023-05-22T08:31:39.969Z,100.00
2023-05-22T08:34:07.705Z,100.00
2023-05-22T08:36:35.812Z,100.00
2023-05-22T08:39:03.884Z,100.00
2023-05-22T08:41:31.743Z,100.00
2023-05-22T08:43:59.493Z,100.00
2023-05-22T08:46:29.431Z,100.00
2023-05-22T08:48:58.637Z,100.00
2023-05-22T08:51:31.804Z,100.00
2023-05-22T08:54:03.910Z,100.00
2023-05-22T08:56:33.292Z,100.00
2023-05-22T08:59:06.804Z,100.00
2023-05-22T09:01:34.593Z,100.00
2023-05-22T09:04:03.563Z,100.00
2023-05-22T09:06:32.013Z,100.00
2023-05-22T09:08:59.917Z,100.00
2023-05-22T09:11:27.783Z,100.00
2023-05-22T09:14:08.108Z,100.00
2023-05-22T09:16:49.944Z,100.00
2023-05-22T09:19:17.946Z,100.00
2023-05-22T09:21:46.315Z,100.00
2023-05-22T09:24:14.248Z,100.00
2023-05-22T09:26:42.256Z,100.00
2023-05-22T09:29:10.268Z,100.00
2023-05-22T09:31:43.077Z,100.00
2023-05-22T09:34:14.427Z,95.37
2023-05-22T09:36:42.679Z,93.10
2023-05-22T09:39:11.088Z,92.78
2023-05-22T09:41:40.256Z,93.43
2023-05-22T09:44:15.340Z,94.05
2023-05-22T09:46:46.506Z,92.92
2023-05-22T09:49:16.511Z,90.39
2023-05-22T09:51:48.383Z,89.21
2023-05-22T09:54:20.731Z,87.25
2023-05-22T09:56:49.345Z,86.17
2023-05-22T09:59:22.587Z,83.29
2023-05-22T10:01:50.753Z,82.21
2023-05-22T10:04:20.458Z,85.00
2023-05-22T10:06:51.787Z,86.08
2023-05-22T10:09:24.111Z,86.25
2023-05-22T10:11:58.891Z,85.39
2023-05-22T10:14:28.828Z,89.00
2023-05-22T10:17:02.212Z,89.38
2023-05-22T10:19:32.988Z,90.64
2023-05-22T10:22:01.718Z,89.72
2023-05-22T10:24:30.075Z,87.97
2023-05-22T10:26:58.032Z,87.45
2023-05-22T10:29:36.802Z,89.77
2023-05-22T10:32:27.598Z,88.58
2023-05-22T10:35:08.830Z,86.28
2023-05-22T10:37:47.431Z,84.83
2023-05-22T10:40:21.845Z,85.12
2023-05-22T10:42:53.010Z,80.86
2023-05-22T10:45:20.909Z,77.41
2023-05-22T10:47:51.289Z,74.99
2023-05-22T10:50:19.113Z,74.33
2023-05-22T10:52:47.746Z,73.53
2023-05-22T10:55:15.524Z,72.71
2023-05-22T10:57:43.195Z,72.50
2023-05-22T11:00:16.368Z,72.67
2023-05-22T11:02:50.537Z,71.52
2023-05-22T11:05:25.598Z,72.20
2023-05-22T11:07:53.373Z,74.40
2023-05-22T11:10:47.865Z,75.00
2023-05-22T11:13:18.116Z,73.48
2023-05-22T11:15:46.868Z,73.94
2023-05-22T11:18:15.183Z,74.79
2023-05-22T11:20:44.336Z,74.20
2023-05-22T11:23:12.057Z,73.52
2023-05-22T11:25:41.497Z,70.24
2023-05-22T11:28:11.430Z,70.52
2023-05-22T11:30:40.293Z,70.21
2023-05-22T11:33:08.807Z,67.74
2023-05-22T11:35:38.039Z,65.38
2023-05-22T11:38:07.390Z,66.97
2023-05-22T11:40:35.506Z,64.18
2023-05-22T11:43:04.717Z,65.17
2023-05-22T11:45:37.139Z,64.40
2023-05-22T11:48:04.926Z,63.42
2023-05-22T11:50:41.898Z,64.23
2023-05-22T11:53:10.784Z,67.05
2023-05-22T11:55:38.297Z,68.32
2023-05-22T11:58:05.680Z,65.73
2023-05-22T12:00:33.554Z,66.50
2023-05-22T12:03:01.120Z,67.67
2023-05-22T12:05:28.523Z,64.09
2023-05-22T12:07:56.127Z,64.13
2023-05-22T12:10:25.437Z,63.39
2023-05-22T12:12:53.087Z,63.57
2023-05-22T12:15:21.323Z,67.46
2023-05-22T12:17:48.920Z,69.63
2023-05-22T12:20:16.277Z,67.32
2023-05-22T12:22:44.149Z,66.76
2023-05-22T12:25:16.829Z,68.06
2023-05-22T12:27:47.053Z,68.00
2023-05-22T12:30:15.232Z,65.42
2023-05-22T12:32:50.747Z,62.10
2023-05-22T12:35:19.355Z,62.70
2023-05-22T12:37:51.134Z,64.05
2023-05-22T12:40:19.143Z,62.44
2023-05-22T12:42:49.620Z,62.89
2023-05-22T12:45:18.178Z,62.59
2023-05-22T12:47:46.019Z,60.88
2023-05-22T12:50:13.439Z,61.89
2023-05-22T12:52:41.046Z,61.66
2023-05-22T12:55:10.811Z,63.23
2023-05-22T12:57:38.910Z,61.80
2023-05-22T13:00:07.053Z,62.42
2023-05-22T13:02:35.288Z,61.72
2023-05-22T13:05:03.004Z,61.46
2023-05-22T13:07:33.452Z,63.25
2023-05-22T13:10:00.785Z,63.69
2023-05-22T13:12:28.104Z,64.38
2023-05-22T13:14:56.142Z,65.23
2023-05-22T13:17:23.424Z,66.45
2023-05-22T13:19:51.497Z,65.63
2023-05-22T13:22:21.606Z,66.58
2023-05-22T13:24:49.193Z,67.63
2023-05-22T13:27:20.293Z,68.58
2023-05-22T13:29:47.782Z,70.62
2023-05-22T13:32:15.217Z,72.08
2023-05-22T13:34:42.788Z,72.46
2023-05-22T13:37:11.019Z,72.77
2023-05-22T13:39:39.291Z,73.75
2023-05-22T13:42:07.316Z,74.88
2023-05-22T13:44:34.595Z,74.89
2023-05-22T13:47:02.090Z,75.17
2023-05-22T13:49:29.647Z,76.33
2023-05-22T13:51:57.077Z,76.52
2023-05-22T13:54:24.660Z,76.49
2023-05-22T13:56:51.924Z,76.67
2023-05-22T13:59:19.651Z,76.84
2023-05-22T14:01:46.920Z,77.47
2023-05-22T14:04:14.430Z,77.71
2023-05-22T14:06:43.305Z,78.04
2023-05-22T14:09:12.865Z,77.31
2023-05-22T14:11:40.302Z,77.77
2023-05-22T14:14:07.861Z,78.02
2023-05-22T14:16:35.884Z,78.21
2023-05-22T14:19:03.493Z,77.44
2023-05-22T14:21:31.504Z,76.82
2023-05-22T14:23:59.096Z,77.47
2023-05-22T14:26:26.448Z,77.24
2023-05-22T14:28:54.141Z,77.22
2023-05-22T14:31:21.508Z,78.11
2023-05-22T14:33:48.789Z,77.67
2023-05-22T14:36:36.163Z,78.28
2023-05-22T14:39:15.767Z,78.10
2023-05-22T14:41:43.200Z,78.00
2023-05-22T14:44:10.641Z,79.50
2023-05-22T14:46:40.975Z,79.27
2023-05-22T14:49:08.492Z,80.81
2023-05-22T14:51:35.913Z,80.87
2023-05-22T14:54:04.203Z,80.21
2023-05-22T14:56:31.599Z,80.72
2023-05-22T14:58:58.909Z,80.87
2023-05-22T15:01:26.342Z,81.07
2023-05-22T15:03:56.416Z,81.79
2023-05-22T15:06:23.949Z,82.62
2023-05-22T15:08:51.345Z,83.09
2023-05-22T15:11:18.590Z,82.98
2023-05-22T15:13:46.241Z,83.64
2023-05-22T15:16:13.555Z,83.71
2023-05-22T15:18:41.480Z,84.37
2023-05-22T15:21:09.131Z,85.20
2023-05-22T15:23:37.170Z,86.04
2023-05-22T15:26:04.501Z,86.67
2023-05-22T15:28:31.915Z,86.69
2023-05-22T15:30:59.551Z,87.09
2023-05-22T15:33:30.995Z,87.71
2023-05-22T15:35:58.433Z,87.72
2023-05-22T15:38:25.908Z,89.43
2023-05-22T15:40:53.231Z,89.91
2023-05-22T15:43:20.724Z,91.17
2023-05-22T15:45:49.040Z,90.76
2023-05-22T15:48:21.749Z,91.36
2023-05-22T15:50:49.076Z,92.00
2023-05-22T15:53:16.486Z,92.40
2023-05-22T15:55:44.194Z,92.64
2023-05-22T15:58:11.549Z,95.03
2023-05-22T16:00:41.182Z,95.45
2023-05-22T16:03:09.148Z,97.11
2023-05-22T16:05:40.263Z,96.41
2023-05-22T16:08:10.555Z,95.23
2023-05-22T16:10:41.683Z,95.64
2023-05-22T16:13:11.905Z,97.15
2023-05-22T16:15:41.063Z,96.66
2023-05-22T16:18:09.851Z,97.34
2023-05-22T16:20:37.514Z,98.67
2023-05-22T16:23:04.902Z,100.00
2023-05-22T16:25:32.320Z,100.00
2023-05-22T16:27:59.824Z,100.00
2023-05-22T16:30:27.121Z,100.00
2023-05-22T16:32:54.676Z,100.00
2023-05-22T16:35:22.347Z,100.00
2023-05-22T16:37:50.886Z,100.00
2023-05-22T16:40:19.961Z,100.00
2023-05-22T16:42:47.579Z,100.00
2023-05-22T16:45:14.951Z,100.00
2023-05-22T16:47:42.830Z,100.00
2023-05-22T16:50:10.436Z,100.00
2023-05-22T16:52:37.953Z,100.00
2023-05-22T16:55:05.759Z,100.00
2023-05-22T16:57:33.615Z,100.00
2023-05-22T17:00:01.577Z,100.00
2023-05-22T17:03:03.179Z,100.00
2023-05-22T17:05:30.973Z,100.00
2023-05-22T17:07:58.290Z,100.00
2023-05-22T17:10:25.866Z,100.00
2023-05-22T17:12:53.148Z,100.00
2023-05-22T17:15:21.106Z,100.00
2023-05-22T17:17:48.724Z,100.00
2023-05-22T17:20:16.970Z,100.00
2023-05-22T17:22:44.625Z,100.00
2023-05-22T17:25:11.848Z,100.00
2023-05-22T17:27:39.555Z,100.00
2023-05-22T17:30:07.916Z,100.00
2023-05-22T17:32:35.971Z,100.00
2023-05-22T17:35:05.034Z,100.00
2023-05-22T17:37:32.681Z,100.00
2023-05-22T17:40:00.088Z,100.00
2023-05-22T17:42:27.678Z,100.00
2023-05-22T17:44:55.100Z,100.00
2023-05-22T17:47:22.758Z,100.00
2023-05-22T17:49:50.571Z,100.00
2023-05-22T17:52:17.981Z,100.00
2023-05-22T17:54:46.959Z,100.00
2023-05-22T17:57:14.531Z,100.00
2023-05-22T17:59:42.273Z,100.00
2023-05-22T18:02:09.916Z,100.00
2023-05-22T18:04:37.396Z,100.00
2023-05-22T18:07:05.146Z,100.00
2023-05-22T18:09:32.980Z,100.00
2023-05-22T18:12:03.842Z,100.00
2023-05-22T18:14:31.540Z,100.00
2023-05-22T18:16:58.946Z,100.00
2023-05-22T18:19:26.372Z,100.00
2023-05-22T18:21:53.862Z,100.00
2023-05-22T18:24:25.373Z,100.00
2023-05-22T18:26:54.798Z,100.00
2023-05-22T18:29:22.735Z,100.00
2023-05-22T18:31:50.177Z,100.00
2023-05-22T18:34:17.702Z,100.00
2023-05-22T18:36:45.176Z,100.00
2023-05-22T18:39:15.892Z,100.00
2023-05-22T18:41:43.362Z,100.00
2023-05-22T18:44:10.804Z,100.00
2023-05-22T18:46:38.435Z,100.00
2023-05-22T18:49:06.074Z,100.00
2023-05-22T18:51:33.756Z,100.00
2023-05-22T18:54:01.387Z,100.00
2023-05-22T18:56:29.429Z,100.00
2023-05-22T18:58:56.881Z,100.00
2023-05-22T19:01:24.357Z,100.00
2023-05-22T19:03:51.833Z,100.00
2023-05-22T19:06:21.370Z,100.00
2023-05-22T19:08:49.715Z,100.00
2023-05-22T19:11:17.120Z,100.00
2023-05-22T19:13:45.133Z,100.00
2023-05-22T19:16:14.058Z,100.00
2023-05-22T19:18:44.354Z,100.00
2023-05-22T19:21:11.733Z,100.00
2023-05-22T19:23:39.157Z,100.00
2023-05-22T19:26:06.666Z,100.00
2023-05-22T19:28:35.662Z,100.00
2023-05-22T19:31:03.389Z,100.00
2023-05-22T19:33:31.408Z,100.00
2023-05-22T19:35:59.058Z,100.00
2023-05-22T19:38:26.484Z,100.00
2023-05-22T19:40:54.468Z,100.00
2023-05-22T19:43:22.229Z,100.00
2023-05-22T19:45:49.585Z,100.00
2023-05-22T19:48:17.251Z,100.00
2023-05-22T19:50:45.484Z,100.00
2023-05-22T19:53:12.888Z,100.00
2023-05-22T19:55:40.176Z,100.00
2023-05-22T19:58:07.690Z,100.00
2023-05-22T20:00:35.854Z,100.00
2023-05-22T20:03:03.389Z,100.00
2023-05-22T20:05:30.998Z,100.00
2023-05-22T20:07:58.917Z,100.00
2023-05-22T20:10:26.623Z,100.00
2023-05-22T20:12:58.720Z,100.00
2023-05-22T20:15:26.317Z,100.00
2023-05-22T20:17:54.599Z,100.00
2023-05-22T20:20:24.680Z,100.00
2023-05-22T20:22:53.906Z,100.00
2023-05-22T20:25:21.811Z,100.00
2023-05-22T20:27:49.318Z,100.00
2023-05-22T20:30:16.849Z,100.00
2023-05-22T20:32:46.655Z,100.00
2023-05-22T20:35:14.281Z,100.00
2023-05-22T20:37:41.998Z,100.00
2023-05-22T20:40:09.902Z,100.00
2023-05-22T20:42:38.106Z,100.00
2023-05-22T20:45:06.416Z,100.00
2023-05-22T20:47:39.378Z,100.00
2023-05-22T20:50:07.745Z,100.00
2023-05-22T20:52:37.207Z,100.00
2023-05-22T20:55:05.545Z,100.00
2023-05-22T20:57:34.290Z,100.00
2023-05-22T21:00:01.993Z,100.00
2023-05-22T21:02:29.906Z,100.00
2023-05-22T21:04:57.366Z,100.00
2023-05-22T21:07:25.685Z,100.00
2023-05-22T21:09:53.122Z,100.00
2023-05-22T21:12:20.806Z,100.00
2023-05-22T21:14:48.336Z,100.00
2023-05-22T21:17:16.016Z,100.00
2023-05-22T21:19:43.402Z,100.00
2023-05-22T21:22:10.954Z,100.00
2023-05-22T21:24:38.301Z,100.00
2023-05-22T21:27:05.896Z,100.00
2023-05-22T21:29:33.196Z,100.00
2023-05-22T21:32:00.821Z,100.00
2023-05-22T21:34:28.331Z,100.00
2023-05-22T21:36:55.772Z,100.00
2023-05-22T21:39:23.064Z,100.00
2023-05-22T21:41:50.471Z,100.00
2023-05-22T21:44:18.569Z,100.00
2023-05-22T21:46:45.926Z,100.00
2023-05-22T21:49:13.546Z,100.00
2023-05-22T21:51:40.865Z,100.00
2023-05-22T21:54:08.522Z,100.00
2023-05-22T21:56:35.849Z,100.00
2023-05-22T21:59:03.468Z,100.00
2023-05-22T22:01:30.957Z,100.00
2023-05-22T22:03:58.821Z,100.00
2023-05-22T22:06:26.162Z,100.00
2023-05-22T22:08:53.507Z,100.00
2023-05-22T22:11:21.441Z,100.00
2023-05-22T22:13:48.890Z,100.00
2023-05-22T22:16:16.735Z,100.00
2023-05-22T22:18:44.732Z,100.00
2023-05-22T22:21:12.097Z,100.00
2023-05-22T22:23:39.432Z,100.00
2023-05-22T22:26:06.854Z,100.00
2023-05-22T22:28:34.620Z,100.00
2023-05-22T22:31:02.006Z,100.00
2023-05-22T22:33:30.602Z,100.00
2023-05-22T22:35:58.460Z,100.00
2023-05-22T22:38:27.006Z,100.00
2023-05-22T22:40:54.528Z,100.00
2023-05-22T22:43:21.885Z,100.00
2023-05-22T22:45:49.259Z,100.00
2023-05-22T22:48:16.808Z,100.00
2023-05-22T22:50:44.365Z,100.00
2023-05-22T22:53:11.895Z,100.00
2023-05-22T22:55:39.529Z,100.00
2023-05-22T22:58:09.527Z,100.00
2023-05-22T23:00:37.260Z,100.00
2023-05-22T23:03:04.629Z,100.00
2023-05-22T23:05:32.084Z,100.00
2023-05-22T23:08:02.125Z,100.00
2023-05-22T23:10:29.902Z,100.00
2023-05-22T23:12:58.366Z,100.00
2023-05-22T23:15:25.924Z,100.00
2023-05-22T23:17:53.495Z,100.00
2023-05-22T23:20:20.926Z,100.00
2023-05-22T23:22:48.249Z,100.00
2023-05-22T23:25:15.979Z,100.00
2023-05-22T23:27:43.782Z,100.00
2023-05-22T23:30:11.555Z,100.00
2023-05-22T23:32:39.088Z,100.00
2023-05-22T23:35:06.600Z,100.00
2023-05-22T23:37:34.378Z,100.00
2023-05-22T23:40:01.679Z,100.00
2023-05-22T23:42:29.311Z,100.00
2023-05-22T23:44:56.724Z,100.00
2023-05-22T23:47:24.229Z,100.00
2023-05-22T23:49:51.761Z,100.00
2023-05-22T23:52:19.027Z,100.00
2023-05-22T23:54:46.457Z,100.00
2023-05-22T23:57:13.791Z,100.00
2023-05-22T23:59:43.694Z,100.00
